White Mountain Summit Weather observations

Data are for 10 minute period ending at time listed.
 Day   Time   Solar   Ave.   Ave.  Ave.  Vector    Max.    Baro.  
  of    of     Rad.   Air    Rel.  Wind   Wind     Wind   Press.  
Year   Day            Temp.  Hum.  Speed  Dir.     Gust           
2014   (PST)   W/m2    F      %     mph   deg.      mph     mb.   
-------------------------------------------------------------------
 330    4:40  1354.0    26   21.1    34    295.4    49.4   999.0 
 330    4:50  1363.0    26   22.3    35    294.4    47.1   999.0 
 330    5:00  1424.0    26   22.5    33    289.8    42.4   999.0 
 330    5:10  1431.0    26   22.8    30    285.5    42.4   999.0 
 330    5:20  1408.0    26   22.5    30    292.6    37.7   999.0 
 330    5:30  1417.0    26   21.0    31    286.2    40.0   999.0 
 330    5:40  1414.0    26   20.7    30    291.0    37.7   999.0 
 330    5:50  1440.0    26   20.2    28    291.9    40.0   999.0 
 330    6:00  1452.0    26   20.9    29    284.0    40.0   999.0 
 330    6:10  1447.0    26   22.4    33    289.7    47.1   999.0 
 330    6:20  1457.0    26   21.4    29    296.3    37.7   999.0 
 330    6:30  1458.0    26   21.5    28    292.7    37.7   999.0 
 330    6:40  1431.0    26   21.5    29    291.3    37.7   999.0 
 330    6:50  1492.0    26   22.0    28    288.5    42.4   999.0 
 330    7:00  2806.0    26   21.8    27    295.3    40.0   999.0 
 330    7:10  1762.0    27   20.8    29    302.8    37.7   999.0 
 330    7:20  2055.0    28   20.7    29    295.8    37.7   999.0 
 330    7:30  2016.0    28   21.5    28    296.5    35.3   999.0 
 330    7:40  3157.0    28   21.0    30    288.9    42.4   999.0 
 330    7:50  2449.0    29   21.8    30    284.6    37.7   999.0 
 330    8:00  3257.0    29   21.2    28    274.8    35.3   999.0 
 330    8:10  4724.0    30   21.8    26    288.4    33.0   999.0 
 330    8:20  5254.0    30   21.5    25    278.8    30.6   999.0 
 330    8:30  5142.0    30   22.1    25    284.3    40.0   999.0 
 330    8:40  5815.0    30   22.6    25    282.5    37.7   999.0 
 330    8:50  3810.0    31   23.2    21    280.8    28.2   999.0 
 330    9:00  2754.0    31   23.5    21    273.0    25.9   999.0 
 330    9:10  5274.0    31   23.7    21    274.2    28.2   999.0 
 330    9:20  6624.0    33   22.1    18    278.3    25.9   999.0 
 330    9:30  7296.0    35   21.3    13    299.8    18.8   999.0 
 330    9:40  7517.0    36   18.6    15    285.9    21.2   999.0 
 330    9:50  5529.0    36   18.1    14    284.4    18.8   999.0 
 330   10:00  1223.0    38   17.1    11    290.9    16.5   999.0 
 330   10:10  357.0    39   16.0    11    282.1    21.2   999.0 
 330   10:20  312.0    40   15.7    11    293.4    18.8   999.0 
 330   10:30  293.0    39   16.9    12    275.2    21.2   999.0 
 330   10:40  230.0    39   16.4    12    284.2    16.5   999.0 
 330   10:50  226.0    39   16.5    14    278.4    18.8   999.0 
 330   11:00  229.0    39   15.4    11    282.3    16.5   999.0 
 330   11:10  233.0    41   14.0    10    291.9    14.1   999.0 
 330   11:20  236.0    40   15.1    12    292.1    18.8   999.0 
 330   11:30  244.0    40   14.8    14    274.9    18.8   999.0 
 330   11:40  249.0    39   14.5    12    271.1    16.5   999.0 
 330   11:50  248.0    42   13.1    10    286.0    16.5   999.0 
 330   12:00  255.0    43   13.6    11    281.7    16.5   999.0 
 330   12:10  261.0    43   12.1    14    273.4    18.8   999.0 
 330   12:20  265.0    41   14.6    15    270.5    21.2   999.0 
 330   12:30  264.0    41   15.0    14    269.0    18.8   999.0 
 330   12:40  261.0    41   15.7    14    269.7    16.5   999.0 
 330   12:50  264.0    42   13.9    12    271.7    16.5   999.0 
 330   13:00  367.0    42   14.9    14    273.9    23.5   999.0 
 330   13:10  453.0    40   16.0    19    267.9    23.5   999.0 
 330   13:20  492.0    39   16.6    22    267.7    28.2   999.0 
 330   13:30  527.0    39   16.5    20    265.7    25.9   999.0 
 330   13:40  553.0    38   16.4    23    267.1    28.2   999.0 
 330   13:50  552.0    38   17.2    25    266.2    30.6   999.0 
 330   14:00  433.0    37   17.7    25    268.2    28.2   999.0 
 330   14:10  446.0    38   17.2    23    267.0    28.2   999.0 
 330   14:20  476.0    39   16.9    25    266.3    30.6   999.0 
 330   14:30  457.0    40   18.3    26    267.1    33.0   999.0 
 330   14:40  418.0    40   18.6    28    267.0    35.3   999.0 
 330   14:50  427.0    39   19.9    29    266.2    35.3   999.0 
 330   15:00  1543.0    40   19.3    29    267.2    37.7   999.0 
 330   15:10  2341.0    39   20.6    27    267.6    33.0   999.0 
 330   15:20  2242.0    38   21.2    32    266.1    37.7   999.0 
 330   15:30  2036.0    38   21.4    32    266.2    40.0   999.0 
 330   15:40  1941.0    38   21.0    33    266.0    44.7   999.0 
 330   15:50  2930.0    38   20.6    34    265.8    40.0   999.0 
 330   16:00  2167.0    37   21.1    36    265.8    40.0   999.0 
 330   16:10  1822.0    37   21.0    37    266.4    44.7   999.0 
 330   16:20  1218.0    37   21.8    32    265.5    37.7   999.0 
 330   16:30  3561.0    36   22.6    34    266.6    37.7   999.0 
 330   16:40  3423.0    34   23.8    34    265.6    40.0   999.0 
 330   16:50  5410.0    33   24.9    34    264.3    42.4   999.0 
 330   17:00  6198.0    32   26.2    36    265.3    44.7   999.0 
 330   17:10  5959.0    31   27.8    37    266.7    42.4   999.0 
 330   17:20  5128.0    31   28.8    37    266.6    42.4   999.0 
 330   17:30  3745.0    30   29.8    38    267.5    42.4   999.0 
 330   17:40  1456.0    30   30.0    40    268.4    44.7   999.0 
 330   17:50  993.0    29   33.1    41    268.7    44.7   999.0 
 330   18:00  718.0    29   34.4    41    269.3    44.7   999.0 
 330   18:10  751.0    29   36.4    41    270.3    47.1   999.0 
 330   18:20  843.0    28   35.8    41    269.2    44.7   999.0 
 330   18:30  706.0    28   35.0    40    269.6    44.7   999.0 
 330   18:40  461.0    28   36.4    40    268.6    44.7   999.0 
 330   18:50  175.0    28   36.6    38    269.1    42.4   999.0 
 330   19:00  161.0    28   37.2    34    271.7    37.7   999.0 
 330   19:10  158.0    28   39.8    32    269.7    35.3   999.0 
 330   19:20  146.0    28   41.2    34    269.8    37.7   999.0 
 330   19:30  149.0    28   40.7    32    265.0    37.7   999.0 
 330   19:40  145.0    28   36.6    30    261.5    35.3   999.0 
 330   19:50  155.0    28   31.0    32    255.9    35.3   999.0 
 330   20:00  158.0    28   27.4    33    252.0    37.7   999.0 
 330   20:10  176.0    28   26.0    34    253.9    37.7   999.0 
 330   20:20  162.0    28   25.3    37    257.8    42.4   999.0 
 330   20:30  161.0    27   25.1    36    251.4    40.0   999.0 
 330   20:40  141.0    27   25.5    36    261.5    44.7   999.0 
 330   20:50  146.0    27   24.6    39    258.9    42.4   999.0 
 330   21:00  143.0    27   24.3    43    255.0    47.1   999.0 
 330   21:10  159.0    27   24.8    43    255.6    47.1   999.0 
 330   21:20  146.0    27   25.6    44    258.4    49.4   999.0 
 330   21:30  113.0    27   25.4    47    256.5    51.8   999.0 
 330   21:40  131.0    27   27.0    43    256.4    47.1   999.0 
 330   21:50  174.0    27   29.2    47    258.6    51.8   999.0 
 330   22:00  124.0    27   28.3    48    256.0    51.8   999.0 
 330   22:10  106.0    27   26.8    49    255.2    54.1   999.0 
 330   22:20  119.0    27   25.8    48    254.6    56.5   999.0 
 330   22:30  221.0    27   25.7    46    255.5    51.8   999.0 
 330   22:40  129.0    27   25.4    47    255.0    51.8   999.0 
 330   22:50   87.0    27   25.3    43    257.4    49.4   999.0 
 330   23:00  134.0    26   25.8    42    260.2    49.4   999.0 
 330   23:10  106.0    27   25.1    44    257.9    49.4   999.0 
 330   23:20  123.0    27   22.5    46    254.5    51.8   999.0 
 330   23:30  140.0    27   22.3    45    257.0    49.4   999.0 
 330   23:40  124.0    28   21.7    45    257.1    49.4   999.0 
 330   23:50  119.0    28   21.5    44    254.5    47.1   999.0 
 331    0:00  127.0    27   23.6    42    257.1    47.1   999.0 
 331    0:10  105.0    27   23.9    42    256.7    47.1   999.0 
 331    0:20  126.0    27   24.1    38    260.2    42.4   999.0 
 331    0:30   92.0    26   24.2    39    258.7    42.4   999.0 
 331    0:40  139.0    26   24.9    40    255.1    44.7   999.0 
 331    0:50  138.0    26   24.7    42    256.0    47.1   999.0 
 331    1:00   98.0    26   25.2    39    257.2    44.7   999.0 
 331    1:10  148.0    26   23.8    43    255.5    49.4   999.0 
 331    1:20   73.0    26   22.7    45    256.2    51.8   999.0 
 331    1:30   81.0    26   24.2    41    257.5    49.4   999.0 
 331    1:40   52.0    26   25.1    42    255.2    47.1   999.0 
 331    1:50   92.0    26   25.6    46    256.1    51.8   999.0 
 331    2:00   91.0    26   25.6    48    254.8    51.8   999.0 
 331    2:10   87.0    26   25.3    48    254.9    54.1   999.0 
 331    2:20  105.0    26   25.5    46    256.1    51.8   999.0 
 331    2:30   62.0    26   25.3    48    264.9    56.5   999.0 
 331    2:40   60.0    26   25.1    48    268.4    54.1   999.0 
 331    2:50  113.0    26   24.8    48    267.8    54.1   999.0 
 331    3:00   70.0    26   25.4    44    261.5    51.8   999.0 
 331    3:10  126.0    26   25.9    48    267.1    56.5   999.0 
 331    3:20   87.0    26   25.8    50    269.2    58.8   999.0 
 331    3:30  110.0    26   26.1    51    264.9    56.5   999.0 
 331    3:40  128.0    26   26.6    50    259.1    58.8   999.0 
 331    3:50  117.0    26   27.7    50    265.9    61.2   999.0 
 331    4:00  129.0    26   28.4    46    261.8    54.1   999.0 
 331    4:10  112.0    25   29.0    44    258.1    51.8   999.0 
 331    4:20   98.0    25   29.4    45    259.7    49.4   999.0 
 331    4:30   30.0    25   29.5    45    259.5    49.4   999.0 

Return to White Mountain graphs page.


Western Regional Climate Center,wrcc@dri.edu